Patterson, Louisiana
Current Conditions -  °F | °C
As of 4:15 AM on Sunday 23 Nov 2014 (Local Time) from KPTN Reporting Station
Overcast Overcast  
Wind Chill: 64°   Ceiling: 500
Heat Index: 64°   Visibility: 6mi
Dew Point: 64°   Wind: 13mph
Humidity: 100%   Direction: 80°E
Pressure: 29.73"   Gusts: NA
Location:  29.69°N, 91.3°W
Report Text: KPTN 231015Z AUTO 08011KT 6SM BKN005 OVC015 18/18 A2973 RMK AO1 LTG DSNT SE
Loading
Personal Weather Stations






























Interactive Weather Map New forecast layout! Learn more

10-Day Weather Forecast

Advertisements
Track Severe Weather on mobile